createdAt,value
2022-09-28T00:01:08.126Z,14.22
2022-09-28T00:03:36.217Z,14.26
2022-09-28T00:06:08.744Z,14.07
2022-09-28T00:08:36.453Z,13.93
2022-09-28T00:11:06.672Z,14.16
2022-09-28T00:13:34.359Z,14.10
2022-09-28T00:16:06.626Z,14.20
2022-09-28T00:18:36.190Z,13.80
2022-09-28T00:21:18.278Z,13.91
2022-09-28T00:24:04.794Z,14.20
2022-09-28T00:26:33.830Z,14.19
2022-09-28T00:29:02.382Z,14.16
2022-09-28T00:31:32.775Z,14.32
2022-09-28T00:34:02.030Z,14.29
2022-09-28T00:36:31.052Z,14.19
2022-09-28T00:38:59.123Z,14.13
2022-09-28T00:41:28.204Z,14.20
2022-09-28T00:44:27.175Z,14.17
2022-09-28T00:46:55.977Z,14.09
2022-09-28T00:49:40.623Z,13.92
2022-09-28T00:52:13.205Z,13.75
2022-09-28T00:54:43.554Z,13.93
2022-09-28T00:57:11.320Z,13.98
2022-09-28T00:59:38.421Z,13.88
2022-09-28T01:02:06.091Z,13.76
2022-09-28T01:04:33.360Z,13.65
2022-09-28T01:07:00.501Z,13.67
2022-09-28T01:09:28.002Z,13.97
2022-09-28T01:11:55.515Z,13.85
2022-09-28T01:14:25.857Z,13.66
2022-09-28T01:17:15.014Z,13.65
2022-09-28T01:19:59.084Z,13.84
2022-09-28T01:22:35.147Z,13.86
2022-09-28T01:25:13.211Z,13.82
2022-09-28T01:27:44.923Z,13.65
2022-09-28T01:30:37.691Z,13.76
2022-09-28T01:33:04.521Z,13.66
2022-09-28T01:35:45.943Z,13.61
2022-09-28T01:38:19.039Z,13.45
2022-09-28T01:40:47.934Z,13.46
2022-09-28T01:43:25.305Z,13.42
2022-09-28T01:46:00.390Z,13.60
2022-09-28T01:48:35.660Z,13.47
2022-09-28T01:51:11.241Z,13.60
2022-09-28T01:53:46.256Z,13.47
2022-09-28T01:56:21.548Z,13.48
2022-09-28T01:58:57.911Z,13.51
2022-09-28T02:01:35.546Z,13.42
2022-09-28T02:04:15.482Z,13.43
2022-09-28T02:06:53.523Z,13.34
2022-09-28T02:09:34.011Z,13.40
2022-09-28T02:12:08.945Z,13.28
2022-09-28T02:14:40.885Z,13.32
2022-09-28T02:17:09.872Z,13.38
2022-09-28T02:19:37.344Z,13.36
2022-09-28T02:22:29.338Z,13.36
2022-09-28T02:24:59.353Z,13.38
2022-09-28T02:27:41.169Z,13.00
2022-09-28T02:30:08.950Z,12.95
2022-09-28T02:32:40.473Z,13.24
2022-09-28T02:35:12.357Z,13.19
2022-09-28T02:37:40.345Z,13.32
2022-09-28T02:40:18.315Z,13.11
2022-09-28T02:43:18.051Z,13.27
2022-09-28T02:45:57.107Z,13.09
2022-09-28T02:48:55.834Z,13.32
2022-09-28T02:51:47.689Z,13.23
2022-09-28T02:54:31.607Z,13.07
2022-09-28T02:57:04.724Z,13.05
2022-09-28T02:59:44.701Z,12.73
2022-09-28T03:02:32.183Z,12.89
2022-09-28T03:05:23.202Z,13.15
2022-09-28T03:07:59.686Z,13.13
2022-09-28T03:10:39.023Z,12.84
2022-09-28T03:13:06.482Z,13.02
2022-09-28T03:15:36.277Z,13.09
2022-09-28T03:18:04.154Z,13.05
2022-09-28T03:20:33.613Z,13.09
2022-09-28T03:25:49.268Z,13.18
2022-09-28T03:28:16.171Z,13.01
2022-09-28T03:30:43.618Z,13.15
2022-09-28T03:33:11.012Z,13.15
2022-09-28T03:35:38.648Z,13.01
2022-09-28T03:38:05.719Z,13.04
2022-09-28T03:40:34.845Z,12.91
2022-09-28T03:43:01.874Z,12.97
2022-09-28T03:45:29.045Z,13.14
2022-09-28T03:47:56.053Z,12.74
2022-09-28T03:50:22.981Z,13.07
2022-09-28T03:52:49.864Z,13.17
2022-09-28T03:55:17.003Z,13.18
2022-09-28T03:57:43.964Z,13.24
2022-09-28T04:00:11.446Z,13.22
2022-09-28T04:02:41.026Z,12.78
2022-09-28T04:05:09.423Z,13.23
2022-09-28T04:07:37.816Z,13.14
2022-09-28T04:10:05.179Z,13.18
2022-09-28T04:12:32.542Z,13.17
2022-09-28T04:14:59.591Z,13.23
2022-09-28T04:17:26.632Z,13.07
2022-09-28T04:19:53.843Z,13.02
2022-09-28T04:22:46.813Z,13.25
2022-09-28T04:25:13.746Z,13.18
2022-09-28T04:27:59.639Z,13.15
2022-09-28T04:30:26.867Z,13.11
2022-09-28T04:32:53.847Z,12.89
2022-09-28T04:35:20.989Z,12.95
2022-09-28T04:37:48.041Z,13.02
2022-09-28T04:40:15.857Z,12.97
2022-09-28T04:42:43.268Z,13.03
2022-09-28T04:45:10.680Z,13.02
2022-09-28T04:47:42.289Z,12.94
2022-09-28T04:50:20.337Z,13.14
2022-09-28T04:53:06.165Z,12.83
2022-09-28T04:55:33.225Z,13.10
2022-09-28T04:58:03.444Z,12.84
2022-09-28T05:00:33.269Z,13.20
2022-09-28T05:03:07.619Z,13.01
2022-09-28T05:05:53.522Z,13.05
2022-09-28T05:08:39.551Z,13.18
2022-09-28T05:11:08.631Z,13.29
2022-09-28T05:13:45.331Z,13.34
2022-09-28T05:16:16.339Z,13.37
2022-09-28T05:19:10.782Z,13.34
2022-09-28T05:21:38.216Z,13.26
2022-09-28T05:24:07.802Z,13.50
2022-09-28T05:26:37.834Z,13.30
2022-09-28T05:29:06.501Z,13.48
2022-09-28T05:32:02.624Z,13.62
2022-09-28T05:34:36.222Z,13.64
2022-09-28T05:37:03.335Z,13.71
2022-09-28T05:39:30.920Z,13.42
2022-09-28T05:41:58.319Z,13.72
2022-09-28T05:44:26.040Z,13.61
2022-09-28T05:46:54.884Z,13.73
2022-09-28T05:49:22.959Z,13.86
2022-09-28T05:51:49.961Z,13.76
2022-09-28T05:54:17.232Z,14.10
2022-09-28T05:56:46.784Z,14.12
2022-09-28T05:59:13.791Z,13.88
2022-09-28T06:01:41.675Z,14.05
2022-09-28T06:04:10.735Z,14.16
2022-09-28T06:06:38.986Z,14.06
2022-09-28T06:09:05.938Z,14.08
2022-09-28T06:11:55.991Z,14.20
2022-09-28T06:14:39.274Z,14.34
2022-09-28T06:17:06.453Z,14.28
2022-09-28T06:19:33.437Z,14.32
2022-09-28T06:22:39.562Z,14.35
2022-09-28T06:25:09.490Z,14.39
2022-09-28T06:27:37.262Z,14.43
2022-09-28T06:30:04.578Z,14.39
2022-09-28T06:32:31.695Z,14.20
2022-09-28T06:34:58.726Z,14.18
2022-09-28T06:37:29.073Z,14.51
2022-09-28T06:39:56.670Z,14.59
2022-09-28T06:42:24.178Z,14.58
2022-09-28T06:45:20.213Z,14.53
2022-09-28T06:48:06.891Z,14.65
2022-09-28T06:50:43.081Z,14.69
2022-09-28T06:53:28.717Z,14.51
2022-09-28T06:56:11.197Z,14.56
2022-09-28T06:58:38.187Z,14.30
2022-09-28T07:01:05.839Z,14.65
2022-09-28T07:03:45.823Z,14.74
2022-09-28T07:06:47.423Z,14.68
2022-09-28T07:09:43.838Z,14.82
2022-09-28T07:12:35.939Z,14.86
2022-09-28T07:15:23.244Z,14.84
2022-09-28T07:18:00.508Z,14.96
2022-09-28T07:20:30.406Z,14.99
2022-09-28T07:23:14.293Z,15.07
2022-09-28T07:26:09.037Z,15.08
2022-09-28T07:28:56.102Z,15.22
2022-09-28T07:31:46.330Z,15.22
2022-09-28T07:34:20.561Z,15.12
2022-09-28T07:37:01.788Z,15.22
2022-09-28T07:39:29.356Z,15.33
2022-09-28T07:42:02.421Z,15.46
2022-09-28T07:44:30.033Z,15.60
2022-09-28T07:46:57.697Z,15.70
2022-09-28T07:49:36.486Z,15.69
2022-09-28T07:52:15.235Z,15.50
2022-09-28T07:55:06.864Z,15.97
2022-09-28T07:58:01.180Z,16.04
2022-09-28T08:00:42.647Z,16.15
2022-09-28T08:03:09.663Z,16.23
2022-09-28T08:05:39.243Z,16.20
2022-09-28T08:08:06.263Z,16.39
2022-09-28T08:10:33.403Z,16.28
2022-09-28T08:13:31.259Z,16.58
2022-09-28T08:16:16.157Z,16.47
2022-09-28T08:19:01.473Z,16.55
2022-09-28T08:21:47.008Z,16.32
2022-09-28T08:24:15.912Z,16.72
2022-09-28T08:26:44.311Z,16.76
2022-09-28T08:29:12.569Z,16.52
2022-09-28T08:31:51.723Z,16.66
2022-09-28T08:34:38.013Z,16.78
2022-09-28T08:37:40.084Z,16.78
2022-09-28T08:40:26.167Z,16.88
2022-09-28T08:43:23.399Z,16.91
2022-09-28T08:46:14.023Z,16.82
2022-09-28T08:49:25.061Z,16.78
2022-09-28T08:52:23.689Z,17.05
2022-09-28T08:55:12.067Z,17.12
2022-09-28T08:57:51.290Z,17.01
2022-09-28T09:00:34.323Z,17.22
2022-09-28T09:03:07.683Z,16.98
2022-09-28T09:05:50.246Z,17.05
2022-09-28T09:08:57.412Z,17.15
2022-09-28T09:11:28.094Z,17.35
2022-09-28T09:14:04.084Z,17.28
2022-09-28T09:17:01.475Z,17.35
2022-09-28T09:19:55.093Z,17.34
2022-09-28T09:22:59.997Z,17.35
2022-09-28T09:25:47.343Z,17.54
2022-09-28T09:28:43.823Z,17.36
2022-09-28T09:31:26.797Z,17.40
2022-09-28T09:34:13.247Z,17.41
2022-09-28T09:37:03.806Z,17.43
2022-09-28T09:40:14.147Z,17.29
2022-09-28T09:43:30.869Z,17.31
2022-09-28T09:46:40.862Z,16.98
2022-09-28T09:49:38.016Z,17.06
2022-09-28T09:52:29.646Z,17.20
2022-09-28T09:55:30.019Z,17.21
2022-09-28T09:58:41.506Z,17.31
2022-09-28T10:01:35.326Z,17.31
2022-09-28T10:04:44.642Z,17.35
2022-09-28T10:07:25.611Z,17.09
2022-09-28T10:09:58.342Z,17.35
2022-09-28T10:12:44.624Z,17.49
2022-09-28T10:15:25.798Z,17.30
2022-09-28T10:18:11.078Z,17.56
2022-09-28T10:20:56.543Z,17.56
2022-09-28T10:24:05.208Z,17.48
2022-09-28T10:26:41.878Z,17.33
2022-09-28T10:29:37.510Z,17.52
2022-09-28T10:32:19.170Z,17.50
2022-09-28T10:34:50.248Z,17.57
2022-09-28T10:37:20.885Z,17.52
2022-09-28T10:40:41.647Z,17.76
2022-09-28T10:43:17.410Z,17.94
2022-09-28T10:45:46.689Z,17.82
2022-09-28T10:48:22.964Z,18.04
2022-09-28T10:51:07.702Z,18.12
2022-09-28T10:53:38.819Z,18.22
2022-09-28T10:56:29.192Z,18.24
2022-09-28T10:59:31.493Z,18.29
2022-09-28T11:02:41.447Z,18.27
2022-09-28T11:05:22.939Z,18.24
2022-09-28T11:07:53.740Z,18.26
2022-09-28T11:10:28.917Z,18.29
2022-09-28T11:13:01.888Z,18.25
2022-09-28T11:15:32.335Z,18.34
2022-09-28T11:18:19.533Z,18.34
2022-09-28T11:20:46.845Z,18.32
2022-09-28T11:23:55.086Z,18.36
2022-09-28T11:26:22.400Z,18.31
2022-09-28T11:28:53.648Z,18.52
2022-09-28T11:31:31.753Z,18.48
2022-09-28T11:34:27.758Z,18.52
2022-09-28T11:37:24.193Z,18.52
2022-09-28T11:40:22.161Z,18.58
2022-09-28T11:45:54.186Z,18.80
2022-09-28T11:48:27.965Z,18.59
2022-09-28T11:51:07.805Z,18.95
2022-09-28T11:53:37.172Z,19.05
2022-09-28T11:56:35.381Z,19.19
2022-09-28T11:59:13.884Z,19.31
2022-09-28T12:02:00.558Z,19.00
2022-09-28T12:05:07.349Z,19.04
2022-09-28T12:07:43.979Z,19.10
2022-09-28T12:10:44.690Z,19.30
2022-09-28T12:13:27.587Z,19.48
2022-09-28T12:19:18.767Z,19.61
2022-09-28T12:21:56.250Z,19.50
2022-09-28T12:24:30.911Z,19.66
2022-09-28T12:27:11.370Z,19.72
2022-09-28T12:29:47.874Z,19.60
2022-09-28T12:32:26.982Z,19.65
2022-09-28T12:34:54.161Z,19.63
2022-09-28T12:37:53.890Z,19.69
2022-09-28T12:40:37.541Z,19.69
2022-09-28T12:43:29.287Z,19.70
2022-09-28T12:46:11.921Z,19.77
2022-09-28T12:49:43.614Z,19.73
2022-09-28T12:51:57.837Z,19.65
2022-09-28T12:54:50.777Z,19.64
2022-09-28T12:57:20.689Z,19.78
2022-09-28T12:59:53.330Z,19.86
2022-09-28T13:02:36.984Z,19.70
2022-09-28T13:05:19.872Z,19.56
2022-09-28T13:07:53.372Z,19.87
2022-09-28T13:10:46.360Z,19.84
2022-09-28T13:13:50.006Z,19.84
2022-09-28T13:17:00.615Z,19.98
2022-09-28T13:20:18.967Z,20.00
2022-09-28T13:23:26.455Z,19.86
2022-09-28T13:26:29.869Z,19.86
2022-09-28T13:29:04.542Z,19.70
2022-09-28T13:31:35.988Z,19.88
2022-09-28T13:34:07.407Z,19.70
2022-09-28T13:36:37.081Z,19.96
2022-09-28T13:39:04.739Z,19.95
2022-09-28T13:41:40.543Z,19.93
2022-09-28T13:44:13.420Z,20.00
2022-09-28T13:47:08.671Z,19.68
2022-09-28T13:49:56.508Z,19.59
2022-09-28T13:53:14.781Z,19.77
2022-09-28T13:56:01.730Z,19.78
2022-09-28T13:58:34.927Z,19.71
2022-09-28T14:01:34.131Z,19.46
2022-09-28T14:04:18.594Z,19.62
2022-09-28T14:07:00.147Z,19.52
2022-09-28T14:10:09.352Z,19.31
2022-09-28T14:12:41.669Z,19.52
2022-09-28T14:15:37.410Z,19.48
2022-09-28T14:18:04.538Z,19.39
2022-09-28T14:20:31.898Z,19.18
2022-09-28T14:23:17.214Z,19.13
2022-09-28T14:26:00.078Z,19.06
2022-09-28T14:28:39.193Z,19.01
2022-09-28T14:31:10.783Z,18.93
2022-09-28T14:33:39.460Z,18.79
2022-09-28T14:36:41.972Z,18.87
2022-09-28T14:39:50.224Z,18.70
2022-09-28T14:42:23.901Z,18.22
2022-09-28T14:45:06.318Z,18.39
2022-09-28T14:47:34.297Z,18.39
2022-09-28T14:50:17.993Z,18.24
2022-09-28T14:52:51.843Z,18.24
2022-09-28T14:55:26.364Z,18.20
2022-09-28T14:57:57.238Z,18.23
2022-09-28T15:00:28.365Z,17.98
2022-09-28T15:03:00.200Z,18.30
2022-09-28T15:05:44.196Z,18.15
2022-09-28T15:08:12.155Z,18.13
2022-09-28T15:10:45.444Z,18.19
2022-09-28T15:13:40.802Z,17.98
2022-09-28T15:16:11.671Z,17.88
2022-09-28T15:18:57.005Z,18.03
2022-09-28T15:21:24.035Z,18.01
2022-09-28T15:23:51.116Z,17.98
2022-09-28T15:26:32.303Z,18.04
2022-09-28T15:29:03.412Z,17.97
2022-09-28T15:31:35.186Z,17.81
2022-09-28T15:34:20.605Z,17.96
2022-09-28T15:36:48.042Z,18.03
2022-09-28T15:39:34.866Z,17.97
2022-09-28T15:42:02.336Z,17.54
2022-09-28T15:44:33.106Z,17.85
2022-09-28T15:47:09.268Z,17.76
2022-09-28T15:49:44.055Z,17.85
2022-09-28T15:52:23.062Z,17.74
2022-09-28T15:54:50.928Z,17.69
2022-09-28T15:57:37.172Z,17.61
2022-09-28T16:00:25.610Z,17.31
2022-09-28T16:03:05.755Z,17.47
2022-09-28T16:05:41.428Z,17.38
2022-09-28T16:08:22.243Z,17.42
2022-09-28T16:11:04.639Z,17.22
2022-09-28T16:13:32.218Z,17.16
2022-09-28T16:16:00.328Z,16.81
2022-09-28T16:18:30.328Z,16.99
2022-09-28T16:21:28.977Z,16.91
2022-09-28T16:23:56.230Z,16.79
2022-09-28T16:26:37.720Z,16.83
2022-09-28T16:29:27.805Z,16.84
2022-09-28T16:31:55.794Z,16.77
2022-09-28T16:34:27.334Z,16.66
2022-09-28T16:36:54.487Z,16.60
2022-09-28T16:39:22.001Z,16.52
2022-09-28T16:41:54.074Z,16.67
2022-09-28T16:44:24.866Z,16.63
2022-09-28T16:46:55.225Z,16.61
2022-09-28T16:49:25.470Z,16.43
2022-09-28T16:51:52.826Z,16.65
2022-09-28T16:54:41.216Z,16.51
2022-09-28T16:57:11.668Z,16.38
2022-09-28T16:59:38.926Z,16.39
2022-09-28T17:02:45.790Z,16.42
2022-09-28T17:05:19.456Z,16.28
2022-09-28T17:08:01.821Z,16.46
2022-09-28T17:11:09.676Z,16.24
2022-09-28T17:13:34.004Z,16.17
2022-09-28T17:16:04.483Z,16.14
2022-09-28T17:18:32.342Z,16.25
2022-09-28T17:21:04.102Z,16.05
2022-09-28T17:23:31.055Z,16.22
2022-09-28T17:25:59.128Z,16.37
2022-09-28T17:28:34.884Z,16.35
2022-09-28T17:31:03.035Z,16.16
2022-09-28T17:33:30.293Z,16.17
2022-09-28T17:36:00.581Z,16.19
2022-09-28T17:38:28.251Z,16.33
2022-09-28T17:40:56.905Z,16.20
2022-09-28T17:43:24.112Z,16.24
2022-09-28T17:45:51.107Z,16.29
2022-09-28T17:48:23.497Z,16.13
2022-09-28T17:50:50.825Z,16.16
2022-09-28T17:53:18.049Z,16.36
2022-09-28T17:55:45.186Z,16.31
2022-09-28T17:58:20.406Z,16.42
2022-09-28T18:00:49.504Z,16.38
2022-09-28T18:03:20.128Z,16.35
2022-09-28T18:05:49.984Z,16.42
2022-09-28T18:08:21.465Z,16.13
2022-09-28T18:10:50.562Z,16.23
2022-09-28T18:13:17.499Z,16.06
2022-09-28T18:15:44.605Z,16.16
2022-09-28T18:18:12.995Z,16.05
2022-09-28T18:20:42.141Z,15.95
2022-09-28T18:23:09.147Z,16.22
2022-09-28T18:25:40.323Z,15.79
2022-09-28T18:28:07.324Z,15.96
2022-09-28T18:30:38.407Z,16.12
2022-09-28T18:33:07.770Z,15.74
2022-09-28T18:35:34.869Z,15.94
2022-09-28T18:38:04.196Z,15.90
2022-09-28T18:40:32.445Z,15.98
2022-09-28T18:42:59.517Z,15.93
2022-09-28T18:45:26.676Z,15.73
2022-09-28T18:47:53.774Z,15.58
2022-09-28T18:50:20.832Z,16.00
2022-09-28T18:52:47.940Z,15.62
2022-09-28T18:55:14.904Z,15.63
2022-09-28T18:57:42.622Z,15.90
2022-09-28T19:00:11.670Z,15.96
2022-09-28T19:02:39.449Z,15.84
2022-09-28T19:05:07.223Z,15.99
2022-09-28T19:07:34.677Z,16.04
2022-09-28T19:10:02.063Z,16.02
2022-09-28T19:12:29.114Z,15.78
2022-09-28T19:14:56.547Z,16.06
2022-09-28T19:17:23.661Z,15.94
2022-09-28T19:19:51.774Z,15.88
2022-09-28T19:22:18.763Z,15.86
2022-09-28T19:24:46.017Z,16.08
2022-09-28T19:27:13.039Z,16.09
2022-09-28T19:29:40.054Z,16.05
2022-09-28T19:32:07.039Z,15.96
2022-09-28T19:34:33.945Z,15.95
2022-09-28T19:37:04.008Z,15.80
2022-09-28T19:39:31.205Z,15.88
2022-09-28T19:41:59.853Z,15.91
2022-09-28T19:44:31.414Z,15.92
2022-09-28T19:47:00.696Z,15.89
2022-09-28T19:49:28.268Z,15.91
2022-09-28T19:52:11.941Z,15.85
2022-09-28T19:54:40.185Z,15.78
2022-09-28T19:57:11.600Z,15.74
2022-09-28T19:59:39.470Z,15.52
2022-09-28T20:02:07.821Z,15.90
2022-09-28T20:04:35.049Z,15.73
2022-09-28T20:07:02.770Z,15.80
2022-09-28T20:09:30.003Z,15.72
2022-09-28T20:11:57.405Z,15.87
2022-09-28T20:14:26.270Z,15.84
2022-09-28T20:16:57.752Z,15.91
2022-09-28T20:19:24.806Z,15.47
2022-09-28T20:21:51.893Z,15.67
2022-09-28T20:24:18.929Z,15.53
2022-09-28T20:26:46.183Z,15.82
2022-09-28T20:29:13.429Z,15.42
2022-09-28T20:31:40.658Z,15.56
2022-09-28T20:34:08.090Z,15.77
2022-09-28T20:36:35.580Z,15.61
2022-09-28T20:39:03.086Z,15.48
2022-09-28T20:41:36.944Z,15.41
2022-09-28T20:44:06.504Z,15.30
2022-09-28T20:46:35.503Z,15.39
2022-09-28T20:49:03.111Z,15.00
2022-09-28T20:51:30.356Z,14.63
2022-09-28T20:53:59.031Z,15.21
2022-09-28T20:56:34.588Z,15.18
2022-09-28T20:59:01.607Z,15.00
2022-09-28T21:01:30.679Z,14.62
2022-09-28T21:04:00.340Z,14.96
2022-09-28T21:06:32.378Z,15.17
2022-09-28T21:08:59.880Z,15.11
2022-09-28T21:11:28.752Z,14.81
2022-09-28T21:13:59.109Z,14.81
2022-09-28T21:16:29.154Z,14.94
2022-09-28T21:18:56.477Z,15.06
2022-09-28T21:21:24.475Z,15.11
2022-09-28T21:23:55.109Z,15.00
2022-09-28T21:26:27.286Z,14.93
2022-09-28T21:28:58.082Z,14.95
2022-09-28T21:31:29.201Z,14.94
2022-09-28T21:33:59.591Z,15.01
2022-09-28T21:36:26.595Z,14.61
2022-09-28T21:38:56.248Z,14.72
2022-09-28T21:41:27.132Z,14.84
2022-09-28T21:43:54.060Z,15.05
2022-09-28T21:46:21.679Z,14.97
2022-09-28T21:48:54.715Z,14.67
2022-09-28T21:51:21.936Z,14.80
2022-09-28T21:53:49.562Z,14.92
2022-09-28T21:56:16.603Z,14.96
2022-09-28T21:58:43.538Z,15.09
2022-09-28T22:01:15.691Z,15.06
2022-09-28T22:03:44.778Z,15.05
2022-09-28T22:06:11.935Z,14.98
2022-09-28T22:08:39.429Z,15.08
2022-09-28T22:11:13.513Z,15.09
2022-09-28T22:13:52.861Z,15.07
2022-09-28T22:16:22.803Z,14.94
2022-09-28T22:18:50.530Z,15.13
2022-09-28T22:21:20.393Z,14.95
2022-09-28T22:23:48.505Z,15.14
2022-09-28T22:26:23.703Z,14.83
2022-09-28T22:28:59.056Z,15.22
2022-09-28T22:31:29.165Z,14.92
2022-09-28T22:33:56.724Z,14.99
2022-09-28T22:36:24.054Z,15.25
2022-09-28T22:38:50.984Z,15.17
2022-09-28T22:41:22.862Z,14.88
2022-09-28T22:43:51.411Z,15.01
2022-09-28T22:46:23.813Z,14.68
2022-09-28T22:48:56.380Z,14.99
2022-09-28T22:51:25.174Z,14.76
2022-09-28T22:53:52.213Z,14.96
2022-09-28T22:56:19.488Z,14.79
2022-09-28T22:58:46.941Z,14.80
2022-09-28T23:01:19.891Z,14.75
2022-09-28T23:03:47.833Z,14.80
2022-09-28T23:06:16.870Z,14.98
2022-09-28T23:08:45.417Z,14.69
2022-09-28T23:11:12.369Z,14.89
2022-09-28T23:13:39.633Z,14.77
2022-09-28T23:16:12.905Z,15.02
2022-09-28T23:18:41.166Z,15.12
2022-09-28T23:21:17.768Z,14.79
2022-09-28T23:23:46.118Z,14.91
2022-09-28T23:26:16.132Z,14.96
2022-09-28T23:28:43.239Z,14.97
2022-09-28T23:31:19.100Z,14.95
2022-09-28T23:33:46.806Z,14.93
2022-09-28T23:36:14.163Z,14.93
2022-09-28T23:38:41.628Z,14.90
2022-09-28T23:41:09.298Z,14.87
2022-09-28T23:43:36.485Z,14.46
2022-09-28T23:46:05.229Z,14.63
2022-09-28T23:48:32.439Z,14.51
2022-09-28T23:50:59.823Z,14.60
2022-09-28T23:53:27.566Z,14.38
2022-09-28T23:55:54.999Z,14.50
2022-09-28T23:58:22.749Z,14.46
